Time;durP1;ratioP1;P1;durP2;ratioP2;P2;SDS_P1;SDS_P2;PMS_P1;PMS_P2;Temp;Humidity;BMP_temperature;BMP_pressure;BME280_temperature;BME280_humidity;BME280_pressure;Samples;Min_cycle;Max_cycle;Signal;HPM_P1;HPM_P2
2022/03/12 00:00:48;;;;;;;31.92;14.50;;;;;;;1.64;68.39;96741.44;5040349;28;20033;-68
2022/03/12 00:03:14;;;;;;;31.45;14.82;;;;;;;1.65;68.02;96745.72;5017231;28;20037;-67
2022/03/12 00:05:48;;;;;;;30.08;14.38;;;;;;;1.70;68.33;96755.59;5042074;28;20130;-67
2022/03/12 00:08:15;;;;;;;31.73;14.68;;;;;;;1.63;69.60;96755.25;5037629;28;20072;-68
2022/03/12 00:10:43;;;;;;;37.10;16.52;;;;;;;1.56;69.84;96762.97;5043224;28;20037;-68
2022/03/12 00:13:09;;;;;;;31.10;15.93;;;;;;;1.50;69.49;96755.00;5038409;28;20481;-68
2022/03/12 00:15:37;;;;;;;39.85;16.17;;;;;;;1.42;69.46;96757.63;5042728;28;20052;-66
2022/03/12 00:18:04;;;;;;;37.25;16.02;;;;;;;1.29;71.04;96765.44;5041952;28;20053;-69
2022/03/12 00:20:31;;;;;;;30.50;15.27;;;;;;;1.16;71.70;96760.91;5015803;28;20048;-67
2022/03/12 00:22:57;;;;;;;31.90;16.73;;;;;;;1.01;72.79;96764.75;5044153;28;20086;-68
2022/03/12 00:25:24;;;;;;;35.50;15.50;;;;;;;0.82;73.86;96772.94;5046178;28;20047;-69
2022/03/12 00:27:51;;;;;;;33.42;14.88;;;;;;;0.81;74.01;96770.53;5057779;28;20045;-66
2022/03/12 00:30:22;;;;;;;30.08;14.77;;;;;;;0.81;72.45;96776.75;5024384;28;20108;-70
2022/03/12 00:32:49;;;;;;;29.98;15.05;;;;;;;0.88;72.58;96774.47;5049628;28;20059;-68
2022/03/12 00:35:18;;;;;;;32.42;15.35;;;;;;;0.95;72.30;96790.22;5014709;28;20420;-68
2022/03/12 00:37:44;;;;;;;29.77;14.93;;;;;;;1.09;73.43;96785.59;5042098;28;20079;-68
2022/03/12 00:40:11;;;;;;;31.50;15.45;;;;;;;1.07;72.98;96782.41;5038297;28;20075;-68
2022/03/12 00:42:36;;;;;;;27.15;14.70;;;;;;;0.94;72.90;96791.31;5042583;28;20044;-68
2022/03/12 00:45:02;;;;;;;30.95;15.30;;;;;;;0.83;74.24;96784.53;5042759;28;20045;-68
2022/03/12 00:47:28;;;;;;;32.42;14.90;;;;;;;0.87;73.57;96788.25;5038608;28;20045;-67
2022/03/12 00:49:54;;;;;;;29.20;14.52;;;;;;;0.91;73.14;96789.22;5042006;28;20080;-69
2022/03/12 00:52:20;;;;;;;29.73;15.65;;;;;;;0.98;72.42;96791.53;5041340;28;20045;-69
2022/03/12 00:54:46;;;;;;;32.35;16.73;;;;;;;0.99;72.54;96798.50;5046763;28;20059;-67
2022/03/12 00:57:13;;;;;;;30.52;15.88;;;;;;;1.01;71.99;96791.72;5035392;28;20049;-68
2022/03/12 00:59:41;;;;;;;34.63;15.60;;;;;;;1.06;72.41;96798.88;5041916;28;20144;-68
2022/03/12 01:02:09;;;;;;;30.85;14.95;;;;;;;1.19;72.33;96795.38;5037888;28;20044;-68
2022/03/12 01:04:35;;;;;;;30.35;14.82;;;;;;;1.26;72.02;96793.06;5040310;28;20064;-68
2022/03/12 01:07:00;;;;;;;29.60;14.27;;;;;;;1.24;70.13;96797.97;5023925;28;20485;-68
2022/03/12 01:09:28;;;;;;;30.58;14.10;;;;;;;1.30;71.05;96802.13;5000558;28;20042;-69
2022/03/12 01:11:54;;;;;;;31.30;14.73;;;;;;;1.21;72.17;96792.38;5023465;28;20494;-68
2022/03/12 01:14:19;;;;;;;32.83;16.10;;;;;;;0.40;78.00;96793.72;5016722;28;20091;-68
2022/03/12 01:16:45;;;;;;;32.60;15.68;;;;;;;0.22;79.46;96798.09;5022233;28;20042;-69
2022/03/12 01:19:10;;;;;;;36.28;17.88;;;;;;;-0.01;81.02;96791.75;5033670;28;20040;-69
2022/03/12 01:21:36;;;;;;;37.40;17.08;;;;;;;0.00;80.17;96793.38;5060963;28;20064;-68
2022/03/12 01:24:01;;;;;;;35.10;16.60;;;;;;;0.07;79.51;96795.66;5044456;28;20036;-65
2022/03/12 01:26:27;;;;;;;31.55;16.25;;;;;;;0.20;79.49;96789.53;5036930;28;20481;-67
2022/03/12 01:28:53;;;;;;;31.55;16.00;;;;;;;0.37;79.28;96792.41;5042371;28;20048;-69
2022/03/12 01:31:18;;;;;;;33.20;15.60;;;;;;;0.53;78.60;96790.22;5033227;28;20498;-68
2022/03/12 01:33:44;;;;;;;32.72;15.35;;;;;;;0.57;76.73;96791.22;5018653;28;20045;-68
2022/03/12 01:36:10;;;;;;;33.55;15.93;;;;;;;0.58;77.86;96786.66;5035813;28;20041;-68
2022/03/12 01:38:48;;;;;;;37.83;16.27;;;;;;;0.04;80.87;96790.88;5023889;28;20118;-67
2022/03/12 01:41:15;;;;;;;36.45;17.15;;;;;;;-0.13;81.59;96786.84;5022125;28;20052;-69
2022/03/12 01:43:43;;;;;;;31.35;14.95;;;;;;;-0.06;81.67;96783.78;5050609;28;20497;-69
2022/03/12 01:46:10;;;;;;;33.58;16.33;;;;;;;0.14;81.70;96788.00;5035618;28;20044;-68
2022/03/12 01:48:41;;;;;;;32.75;16.67;;;;;;;0.08;80.68;96790.00;5029177;28;20045;-68
2022/03/12 01:51:07;;;;;;;36.03;15.73;;;;;;;0.03;80.29;96792.75;5016725;28;20568;-68
2022/03/12 01:53:32;;;;;;;34.92;16.15;;;;;;;0.05;80.27;96787.09;5021557;28;20060;-68
2022/03/12 01:55:58;;;;;;;32.00;15.30;;;;;;;0.10;80.06;96784.31;5021249;28;20171;-67
2022/03/12 01:58:24;;;;;;;36.17;15.40;;;;;;;0.23;80.71;96786.22;5009361;28;20052;-67
2022/03/12 02:00:51;;;;;;;30.33;15.27;;;;;;;0.34;80.06;96790.34;5037020;28;20124;-67
2022/03/12 02:03:29;;;;;;;33.13;15.95;;;;;;;0.38;79.20;96780.56;5036031;28;20051;-68
2022/03/12 02:05:57;;;;;;;30.40;15.13;;;;;;;0.37;79.53;96783.53;5040990;28;20044;-67
2022/03/12 02:08:23;;;;;;;40.75;17.38;;;;;;;0.44;78.60;96780.47;5036250;28;20925;-68
2022/03/12 02:10:50;;;;;;;30.60;15.68;;;;;;;0.47;78.51;96779.84;5040087;28;20139;-68
2022/03/12 02:13:16;;;;;;;31.67;15.73;;;;;;;0.59;79.08;96782.06;5034304;28;20049;-68
2022/03/12 02:15:42;;;;;;;33.17;15.95;;;;;;;0.67;78.15;96790.25;5038204;28;20187;-68
2022/03/12 02:18:08;;;;;;;32.33;15.77;;;;;;;0.78;77.47;96788.13;5028754;28;20143;-68
2022/03/12 02:20:34;;;;;;;32.08;15.55;;;;;;;0.80;76.71;96793.25;5041848;28;20203;-67
2022/03/12 02:22:59;;;;;;;43.20;19.08;;;;;;;0.73;76.86;96788.25;5041029;28;20048;-68
2022/03/12 02:25:30;;;;;;;32.80;16.15;;;;;;;0.73;77.67;96788.25;5015979;28;20121;-68
2022/03/12 02:27:58;;;;;;;31.05;15.82;;;;;;;0.72;76.69;96782.06;5040355;28;20517;-68
2022/03/12 02:30:28;;;;;;;31.80;15.70;;;;;;;0.81;77.02;96792.94;5026617;28;20886;-69
2022/03/12 02:32:58;;;;;;;29.48;15.35;;;;;;;0.79;76.34;96789.72;5039464;28;20542;-67
2022/03/12 02:35:24;;;;;;;32.63;15.40;;;;;;;0.73;75.06;96785.53;5031760;28;20140;-69
2022/03/12 02:37:52;;;;;;;31.27;15.50;;;;;;;0.74;75.99;96777.16;5026513;28;20182;-68
2022/03/12 02:40:17;;;;;;;33.25;15.60;;;;;;;0.98;75.99;96775.34;5016044;28;20041;-68
2022/03/12 02:42:44;;;;;;;30.40;14.95;;;;;;;1.08;75.27;96777.78;5040885;28;20382;-68
2022/03/12 02:45:10;;;;;;;33.95;16.05;;;;;;;1.13;73.96;96772.28;5035590;28;20191;-68
2022/03/12 02:47:40;;;;;;;29.42;15.85;;;;;;;1.06;74.43;96778.13;5036876;28;20553;-68
2022/03/12 02:50:08;;;;;;;28.38;15.60;;;;;;;1.01;73.44;96780.09;5032891;28;20135;-68
2022/03/12 02:52:41;;;;;;;32.25;15.25;;;;;;;0.86;74.77;96782.03;5039969;28;20394;-68
2022/03/12 02:55:09;;;;;;;29.70;14.57;;;;;;;0.82;75.58;96777.56;5035514;28;20063;-67
2022/03/12 02:57:34;;;;;;;31.15;15.45;;;;;;;0.73;75.70;96777.44;5038046;28;20137;-67
2022/03/12 03:00:06;;;;;;;31.02;15.93;;;;;;;0.79;74.75;96778.94;5034158;28;20057;-68
2022/03/12 03:02:39;;;;;;;34.45;16.08;;;;;;;0.84;75.27;96783.44;5034463;28;20533;-68
2022/03/12 03:05:36;;;;;;;30.13;15.57;;;;;;;0.81;75.13;96790.25;5029015;28;20040;-69
2022/03/12 03:08:06;;;;;;;28.67;14.60;;;;;;;0.90;73.75;96790.31;5017280;28;20597;-70
2022/03/12 03:10:40;;;;;;;29.05;14.98;;;;;;;0.99;73.68;96802.00;5019891;28;20072;-68
2022/03/12 03:13:18;;;;;;;32.92;15.77;;;;;;;0.94;73.99;96794.81;5014697;28;20072;-68
2022/03/12 03:15:49;;;;;;;34.28;15.73;;;;;;;0.99;74.37;96793.09;5019546;28;20052;-68
2022/03/12 03:18:18;;;;;;;26.60;14.15;;;;;;;1.02;74.45;96793.28;5029317;28;20059;-66
2022/03/12 03:20:46;;;;;;;31.83;15.20;;;;;;;1.02;74.58;96793.28;5039584;28;20489;-68
2022/03/12 03:23:12;;;;;;;31.17;16.10;;;;;;;0.94;74.82;96794.81;5034869;28;20073;-68
2022/03/12 03:25:39;;;;;;;33.75;16.27;;;;;;;0.85;74.66;96793.94;5039195;28;20037;-67
2022/03/12 03:28:05;;;;;;;31.52;16.10;;;;;;;0.78;75.11;96790.03;5035172;28;20515;-69
2022/03/12 03:30:36;;;;;;;29.58;15.13;;;;;;;0.53;75.73;96798.31;5039274;28;20508;-67
2022/03/12 03:33:05;;;;;;;37.47;15.32;;;;;;;0.44;76.16;96810.88;5039561;28;20040;-67
2022/03/12 03:35:31;;;;;;;32.03;15.98;;;;;;;0.35;76.96;96808.09;5038486;28;20037;-68
2022/03/12 03:37:57;;;;;;;31.50;15.60;;;;;;;0.30;77.14;96802.00;5040579;28;20414;-68
2022/03/12 03:40:23;;;;;;;32.38;15.57;;;;;;;0.31;78.12;96817.06;5043632;28;20740;-67
2022/03/12 03:42:49;;;;;;;31.40;16.80;;;;;;;0.14;78.74;96820.31;5054177;28;20182;-70
2022/03/12 03:45:22;;;;;;;35.15;16.33;;;;;;;-0.16;80.14;96817.06;5038765;28;20099;-68
2022/03/12 03:47:49;;;;;;;35.10;15.88;;;;;;;-0.08;81.14;96820.97;5025200;28;20105;-68
2022/03/12 03:50:15;;;;;;;33.47;16.25;;;;;;;0.00;80.75;96817.63;5043629;22;20072;-69
2022/03/12 03:52:40;;;;;;;34.08;16.58;;;;;;;0.11;79.87;96826.28;5037875;28;20131;-68
2022/03/12 03:55:06;;;;;;;34.50;16.60;;;;;;;-0.39;81.79;96833.00;5038317;28;20262;-66
2022/03/12 03:57:32;;;;;;;35.10;16.67;;;;;;;-0.60;83.03;96831.72;5043298;28;20045;-67
2022/03/12 03:59:57;;;;;;;36.03;17.60;;;;;;;-0.44;83.43;96830.38;5043900;28;20513;-67
2022/03/12 04:02:23;;;;;;;38.17;15.52;;;;;;;-0.29;82.68;96825.88;5039144;28;20508;-67
2022/03/12 04:04:50;;;;;;;35.58;16.38;;;;;;;-0.25;82.67;96819.63;5043875;28;20405;-68
2022/03/12 04:07:15;;;;;;;36.05;16.20;;;;;;;-0.26;82.10;96823.38;5038343;28;20056;-67
2022/03/12 04:09:41;;;;;;;32.72;16.33;;;;;;;-0.30;82.18;96838.53;5043501;28;20045;-67
2022/03/12 04:12:07;;;;;;;35.25;17.20;;;;;;;-0.57;82.70;96835.72;5039286;28;20052;-67
2022/03/12 04:14:32;;;;;;;36.72;16.48;;;;;;;-0.65;83.33;96834.47;5043226;28;20101;-67
2022/03/12 04:16:58;;;;;;;37.53;16.27;;;;;;;-0.54;83.80;96833.25;5041911;28;20485;-68
2022/03/12 04:19:28;;;;;;;32.85;16.17;;;;;;;-0.63;81.56;96832.28;5037869;28;20832;-67
2022/03/12 04:21:57;;;;;;;34.13;16.08;;;;;;;-0.73;80.88;96829.75;5041650;28;20045;-66
2022/03/12 04:24:25;;;;;;;33.30;16.00;;;;;;;-0.85;82.81;96839.03;5037797;28;20263;-67
2022/03/12 04:26:51;;;;;;;41.03;17.27;;;;;;;-0.85;82.76;96839.03;5042448;28;20401;-66
2022/03/12 04:29:18;;;;;;;30.30;15.23;;;;;;;-0.82;83.94;96837.66;5037506;28;20447;-66
2022/03/12 04:31:47;;;;;;;31.42;15.25;;;;;;;-0.71;85.39;96832.94;5042971;28;20048;-69
2022/03/12 04:34:13;;;;;;;37.42;16.00;;;;;;;-0.83;83.36;96836.88;5037446;28;20052;-67
2022/03/12 04:36:41;;;;;;;31.15;15.23;;;;;;;-0.85;84.19;96827.47;5042556;28;20049;-67
2022/03/12 04:39:08;;;;;;;33.67;17.05;;;;;;;-0.84;84.33;96837.94;5037430;28;20048;-67
2022/03/12 04:41:36;;;;;;;31.27;16.08;;;;;;;-0.90;83.99;96843.69;5036145;28;20080;-67
2022/03/12 04:44:06;;;;;;;38.85;15.30;;;;;;;-0.98;83.80;96848.59;5029540;28;20033;-65
2022/03/12 04:46:32;;;;;;;34.42;15.95;;;;;;;-0.93;84.72;96849.66;5022306;28;20037;-69
2022/03/12 04:48:57;;;;;;;40.97;15.55;;;;;;;-1.05;83.46;96845.47;5022665;28;20759;-69
2022/03/12 04:51:23;;;;;;;38.28;17.75;;;;;;;-0.96;85.59;96851.81;5016391;28;20171;-69
2022/03/12 04:53:48;;;;;;;40.92;17.38;;;;;;;-0.92;85.04;96851.25;5022502;28;20103;-69
2022/03/12 04:56:14;;;;;;;34.90;16.63;;;;;;;-0.80;85.86;96852.41;5015428;28;20252;-67
2022/03/12 04:58:40;;;;;;;38.97;18.25;;;;;;;-0.79;84.98;96859.41;5022270;28;20034;-69
2022/03/12 05:01:07;;;;;;;30.73;16.00;;;;;;;-0.74;84.47;96865.78;5017205;28;20680;-67
2022/03/12 05:03:32;;;;;;;34.35;16.17;;;;;;;-0.87;84.03;96862.72;5022490;28;20493;-69
2022/03/12 05:06:02;;;;;;;38.92;15.45;;;;;;;-0.83;84.98;96865.63;5021431;28;20137;-66
2022/03/12 05:08:28;;;;;;;31.13;16.30;;;;;;;-0.90;84.48;96867.88;5016170;28;20055;-68
2022/03/12 05:10:56;;;;;;;30.83;16.67;;;;;;;-1.08;84.23;96872.94;5022994;28;20575;-68
2022/03/12 05:13:23;;;;;;;29.83;16.38;;;;;;;-1.32;87.79;96870.25;5017443;28;21220;-67
2022/03/12 05:15:57;;;;;;;39.95;17.08;;;;;;;-1.43;87.88;96871.44;5021812;28;20049;-68
2022/03/12 05:18:25;;;;;;;34.28;16.40;;;;;;;-1.39;89.00;96873.28;5016343;28;20068;-66
2022/03/12 05:20:51;;;;;;;35.53;17.50;;;;;;;-1.36;88.12;96874.59;5021857;28;20042;-67
2022/03/12 05:23:18;;;;;;;37.63;17.17;;;;;;;-1.32;88.30;96880.19;5022588;28;20354;-68
2022/03/12 05:25:45;;;;;;;32.83;16.40;;;;;;;-1.25;88.21;96883.34;5043820;28;20489;-67
2022/03/12 05:28:16;;;;;;;32.97;16.40;;;;;;;-1.10;87.79;96885.84;5030910;28;20071;-67
2022/03/12 05:30:45;;;;;;;32.28;17.35;;;;;;;-1.02;87.09;96887.91;5032259;28;20033;-68
2022/03/12 05:33:16;;;;;;;33.33;15.07;;;;;;;-0.95;86.69;96892.97;5054442;28;20052;-66
2022/03/12 05:35:43;;;;;;;36.97;17.00;;;;;;;-0.96;86.49;96894.81;5055061;28;20136;-66
2022/03/12 05:38:11;;;;;;;28.60;16.10;;;;;;;-0.99;86.94;96895.41;5038608;28;20049;-67
2022/03/12 05:40:39;;;;;;;33.53;16.33;;;;;;;-0.93;86.72;96898.84;5039656;28;20131;-68
2022/03/12 05:43:12;;;;;;;34.80;16.02;;;;;;;-0.88;86.51;96901.47;5034477;28;20033;-65
2022/03/12 05:45:39;;;;;;;31.92;16.35;;;;;;;-0.85;86.11;96900.88;5036917;28;20051;-67
2022/03/12 05:48:09;;;;;;;35.05;16.75;;;;;;;-0.89;85.84;96901.75;5036514;28;20397;-65
2022/03/12 05:50:41;;;;;;;36.95;16.75;;;;;;;-0.94;86.23;96912.56;5034775;28;20111;-67
2022/03/12 05:53:09;;;;;;;35.35;16.63;;;;;;;-0.94;85.56;96918.75;5034316;28;20132;-67
2022/03/12 05:55:39;;;;;;;35.88;17.00;;;;;;;-0.87;85.92;96913.81;5043002;28;20136;-69
2022/03/12 05:58:07;;;;;;;33.85;15.93;;;;;;;-0.76;85.27;96914.50;5034557;28;20049;-69
2022/03/12 06:00:33;;;;;;;38.08;17.15;;;;;;;-0.70;85.04;96913.34;5033790;28;20045;-69
2022/03/12 06:02:59;;;;;;;36.45;15.85;;;;;;;-0.63;84.18;96916.50;5039885;28;20052;-67
2022/03/12 06:05:25;;;;;;;38.28;16.75;;;;;;;-0.57;83.69;96908.38;5025272;28;20051;-68
2022/03/12 06:07:52;;;;;;;40.28;18.00;;;;;;;-0.52;83.01;96917.16;5039969;28;20114;-67
2022/03/12 06:10:21;;;;;;;37.65;17.65;;;;;;;-0.50;83.13;96917.69;5027680;28;20045;-68
2022/03/12 06:12:47;;;;;;;35.25;17.70;;;;;;;-0.41;83.43;96928.59;5040565;28;20071;-69
2022/03/12 06:15:18;;;;;;;40.05;18.50;;;;;;;0.00;80.73;96922.63;5023830;28;20037;-69
2022/03/12 06:17:45;;;;;;;36.22;16.80;;;;;;;0.44;79.94;96920.59;5042213;28;20044;-69
2022/03/12 06:20:12;;;;;;;38.97;16.05;;;;;;;0.86;77.46;96926.84;5032158;28;20131;-67
2022/03/12 06:22:38;;;;;;;33.25;15.30;;;;;;;1.41;74.36;96926.06;5023893;28;20034;-69
2022/03/12 06:25:06;;;;;;;37.28;16.98;;;;;;;1.89;72.52;96929.06;5020807;28;20040;-66
2022/03/12 06:27:32;;;;;;;30.45;15.93;;;;;;;2.14;70.85;96931.50;5041273;28;20048;-68
2022/03/12 06:29:58;;;;;;;29.15;14.98;;;;;;;1.92;68.42;96933.06;5042959;28;20055;-69
2022/03/12 06:32:23;;;;;;;32.13;15.70;;;;;;;2.08;67.39;96933.53;5027060;28;20516;-67
2022/03/12 06:34:49;;;;;;;28.75;13.75;;;;;;;2.13;67.00;96938.03;5039738;28;20091;-70
2022/03/12 06:37:14;;;;;;;33.75;15.88;;;;;;;2.22;65.45;96938.88;5030670;28;20052;-66
2022/03/12 06:39:40;;;;;;;30.77;14.50;;;;;;;2.44;65.32;96935.38;5045999;28;20073;-68
2022/03/12 06:42:05;;;;;;;30.27;14.82;;;;;;;2.74;65.52;96938.41;5026813;28;20799;-69
2022/03/12 06:44:32;;;;;;;27.45;14.20;;;;;;;3.64;63.07;96930.03;5039752;28;20052;-69
2022/03/12 06:47:03;;;;;;;28.20;13.80;;;;;;;4.54;59.03;96931.31;5032448;28;20090;-68
2022/03/12 06:49:28;;;;;;;35.13;16.95;;;;;;;5.39;56.45;96933.28;5028683;28;20043;-68
2022/03/12 06:51:54;;;;;;;34.58;16.33;;;;;;;5.96;53.98;96931.22;5038726;28;20132;-68
2022/03/12 06:54:20;;;;;;;28.75;15.68;;;;;;;6.18;53.47;96930.91;5026675;28;20041;-68
2022/03/12 06:56:46;;;;;;;27.75;14.43;;;;;;;5.85;54.57;96934.31;5035502;28;20045;-69
2022/03/12 06:59:12;;;;;;;34.78;13.82;;;;;;;6.66;52.63;96932.25;5033740;28;20071;-68
2022/03/12 07:01:38;;;;;;;27.85;14.77;;;;;;;7.23;50.99;96927.94;5043841;28;20068;-68
2022/03/12 07:04:03;;;;;;;24.77;13.75;;;;;;;7.05;49.01;96934.72;5035804;28;20075;-67
2022/03/12 07:06:29;;;;;;;28.00;14.40;;;;;;;6.99;52.32;96928.69;5036410;28;20141;-69
2022/03/12 07:08:54;;;;;;;29.00;15.75;;;;;;;7.65;50.10;96933.19;5037646;28;20053;-68
2022/03/12 07:11:20;;;;;;;28.30;14.13;;;;;;;8.15;48.65;96925.72;5027134;28;20426;-68
2022/03/12 07:13:47;;;;;;;27.30;14.40;;;;;;;8.48;47.78;96924.75;5033922;28;20400;-69
2022/03/12 07:16:13;;;;;;;26.70;14.27;;;;;;;8.75;46.97;96925.06;5035843;28;20076;-68
2022/03/12 07:18:41;;;;;;;29.75;15.10;;;;;;;9.05;46.15;96927.41;5040164;28;20088;-67
2022/03/12 07:21:06;;;;;;;26.08;13.77;;;;;;;9.55;44.48;96926.72;5020373;28;20069;-67
2022/03/12 07:23:32;;;;;;;26.77;13.75;;;;;;;8.61;45.63;96930.94;5023899;28;20065;-68
2022/03/12 07:25:57;;;;;;;30.70;14.52;;;;;;;8.38;45.51;96933.38;5039427;28;20041;-67
2022/03/12 07:28:23;;;;;;;25.73;13.80;;;;;;;9.43;44.50;96923.28;5029839;28;20098;-70
2022/03/12 07:30:48;;;;;;;27.90;14.38;;;;;;;9.75;41.83;96924.84;5036057;28;20160;-68
2022/03/12 07:33:14;;;;;;;28.42;13.52;;;;;;;9.73;42.58;96927.13;5031481;28;20046;-67
2022/03/12 07:35:40;;;;;;;25.20;14.00;;;;;;;10.56;41.44;96934.41;5041081;28;20056;-67
2022/03/12 07:38:05;;;;;;;26.38;13.18;;;;;;;11.05;39.67;96931.03;5030240;28;20097;-66
2022/03/12 07:40:31;;;;;;;25.25;14.43;;;;;;;11.36;38.59;96936.66;5043868;28;20051;-68
2022/03/12 07:42:56;;;;;;;27.45;12.68;;;;;;;11.60;38.79;96933.53;5041605;28;20478;-68
2022/03/12 07:45:22;;;;;;;26.90;13.27;;;;;;;11.99;37.05;96936.13;5031283;28;20126;-67
2022/03/12 07:47:49;;;;;;;25.40;14.73;;;;;;;11.56;37.63;96937.38;5035586;28;20482;-68
2022/03/12 07:50:15;;;;;;;24.52;13.48;;;;;;;12.26;36.09;96936.09;5036476;28;20044;-67
2022/03/12 07:52:42;;;;;;;24.38;13.98;;;;;;;12.37;36.21;96934.28;5043091;28;20405;-69
2022/03/12 07:55:09;;;;;;;21.52;12.98;;;;;;;12.23;36.56;96945.88;5031601;28;20060;-69
2022/03/12 07:57:35;;;;;;;23.73;14.55;;;;;;;12.98;36.04;96939.69;5028079;28;20041;-67
2022/03/12 08:00:03;;;;;;;24.58;12.82;;;;;;;13.56;34.46;96941.88;5028535;28;20045;-68
2022/03/12 08:02:29;;;;;;;23.23;12.93;;;;;;;13.40;33.87;96935.84;5035644;28;20265;-68
2022/03/12 08:04:55;;;;;;;23.63;13.35;;;;;;;13.07;35.10;96945.72;5041050;28;20044;-66
2022/03/12 08:07:21;;;;;;;27.67;12.73;;;;;;;13.77;34.02;96944.03;5041214;28;20048;-67
2022/03/12 08:09:46;;;;;;;24.15;12.98;;;;;;;13.67;33.01;96935.69;5042955;28;20041;-66
2022/03/12 08:12:13;;;;;;;23.80;13.45;;;;;;;13.71;33.46;96934.53;5043623;28;20041;-66
2022/03/12 08:14:39;;;;;;;23.67;13.20;;;;;;;14.41;32.68;96931.81;5042553;28;20040;-67
2022/03/12 08:17:05;;;;;;;22.55;12.90;;;;;;;13.80;33.66;96934.19;5028635;28;20044;-67
2022/03/12 08:19:31;;;;;;;21.42;13.10;;;;;;;13.81;32.49;96934.97;5034056;28;20083;-68
2022/03/12 08:21:58;;;;;;;25.02;13.35;;;;;;;14.56;32.18;96931.88;5040060;28;20048;-69
2022/03/12 08:24:23;;;;;;;23.25;12.63;;;;;;;14.28;32.47;96936.09;5029431;28;20609;-68
2022/03/12 08:26:49;;;;;;;24.13;12.38;;;;;;;14.67;31.69;96941.78;5047221;28;20489;-68
2022/03/12 08:29:18;;;;;;;22.95;13.30;;;;;;;12.90;33.03;96940.81;5030097;28;20045;-67
2022/03/12 08:31:43;;;;;;;24.38;12.25;;;;;;;13.24;33.87;96933.31;5046895;28;20548;-67
2022/03/12 08:34:10;;;;;;;23.45;12.55;;;;;;;13.88;33.30;96935.03;5042048;28;20171;-67
2022/03/12 08:36:36;;;;;;;25.08;12.90;;;;;;;13.77;33.57;96930.25;5040097;28;20045;-69
2022/03/12 08:39:02;;;;;;;22.08;12.43;;;;;;;13.87;33.40;96926.00;5043683;28;20102;-69
2022/03/12 08:41:28;;;;;;;25.67;14.13;;;;;;;14.41;32.73;96922.78;5038865;28;20048;-69
2022/03/12 08:43:53;;;;;;;22.33;12.23;;;;;;;14.69;32.10;96919.34;5035450;28;20103;-70
2022/03/12 08:46:19;;;;;;;26.60;13.35;;;;;;;14.99;31.95;96916.31;5037379;28;20048;-68
2022/03/12 08:48:45;;;;;;;25.67;14.27;;;;;;;14.75;32.15;96917.00;5043196;28;20167;-68
2022/03/12 08:51:11;;;;;;;24.90;13.35;;;;;;;15.41;30.99;96919.50;5037216;28;20565;-68
2022/03/12 08:53:38;;;;;;;22.00;13.27;;;;;;;15.60;30.66;96908.09;5042559;28;20037;-66
2022/03/12 08:56:04;;;;;;;24.33;12.75;;;;;;;15.77;30.37;96914.03;5038432;28;20326;-65
2022/03/12 08:58:31;;;;;;;25.98;13.02;;;;;;;15.76;30.71;96899.44;5037206;28;20724;-68
2022/03/12 09:00:58;;;;;;;28.27;13.57;;;;;;;15.85;31.05;96894.28;5039032;28;20048;-68
2022/03/12 09:03:24;;;;;;;23.30;12.43;;;;;;;16.32;29.97;96887.88;5037651;28;20493;-67
2022/03/12 09:05:51;;;;;;;26.38;13.25;;;;;;;13.21;35.07;96895.53;5042386;28;20056;-67
2022/03/12 09:08:17;;;;;;;27.88;15.65;;;;;;;11.38;36.47;96896.75;5038362;28;20045;-67
2022/03/12 09:10:44;;;;;;;24.30;14.20;;;;;;;10.19;39.12;96887.47;5041331;28;20094;-66
2022/03/12 09:13:13;;;;;;;22.48;13.55;;;;;;;10.09;39.59;96878.69;5028748;28;20144;-68
2022/03/12 09:15:39;;;;;;;23.52;13.93;;;;;;;10.69;39.02;96878.31;5041423;28;20052;-68
2022/03/12 09:18:06;;;;;;;25.02;13.02;;;;;;;9.51;40.51;96873.88;5036080;28;20048;-68
2022/03/12 09:20:43;;;;;;;26.40;12.95;;;;;;;9.51;41.53;96868.41;5032979;28;20102;-66
2022/03/12 09:23:08;;;;;;;29.73;14.45;;;;;;;9.92;41.39;96866.22;5037496;28;20064;-68
2022/03/12 09:25:34;;;;;;;27.83;13.05;;;;;;;9.94;40.57;96863.13;5040150;28;20569;-67
2022/03/12 09:28:00;;;;;;;26.40;13.25;;;;;;;9.93;40.73;96865.03;5050330;28;20049;-67
2022/03/12 09:30:26;;;;;;;23.63;13.07;;;;;;;10.50;40.24;96862.72;5050817;28;20064;-67
2022/03/12 09:32:51;;;;;;;24.38;13.27;;;;;;;10.74;39.09;96863.53;5058348;28;20654;-68
2022/03/12 09:35:18;;;;;;;28.42;13.85;;;;;;;10.52;39.12;96868.63;5033519;28;20505;-68
2022/03/12 09:37:43;;;;;;;27.45;14.07;;;;;;;10.29;38.45;96865.78;5044592;28;20049;-68
2022/03/12 09:40:10;;;;;;;38.17;16.65;;;;;;;9.89;39.57;96850.50;5033994;28;20045;-69
2022/03/12 09:42:36;;;;;;;26.80;13.30;;;;;;;10.47;38.46;96860.69;5045526;28;20045;-69
2022/03/12 09:45:03;;;;;;;27.67;14.15;;;;;;;10.70;42.44;96860.72;5042476;28;20048;-69
2022/03/12 09:47:28;;;;;;;26.58;15.05;;;;;;;11.80;39.83;96860.16;5038904;28;20051;-68
2022/03/12 09:49:54;;;;;;;24.30;13.90;;;;;;;12.72;37.96;96860.91;5040998;28;20044;-70
2022/03/12 09:52:19;;;;;;;26.10;13.48;;;;;;;13.26;36.76;96856.69;5035862;23;20052;-64
2022/03/12 09:54:45;;;;;;;24.27;14.02;;;;;;;13.04;38.38;96852.19;5021437;28;20037;-64
2022/03/12 09:57:10;;;;;;;26.13;13.77;;;;;;;12.24;39.72;96861.53;5019321;28;20449;-65
2022/03/12 09:59:36;;;;;;;23.70;13.57;;;;;;;11.65;41.74;96855.63;5042026;28;20141;-66
2022/03/12 10:02:02;;;;;;;29.20;15.27;;;;;;;11.69;41.72;96855.69;5020857;28;20405;-66
2022/03/12 10:04:28;;;;;;;28.55;14.32;;;;;;;12.16;40.07;96857.13;5019027;28;20037;-65
2022/03/12 10:06:54;;;;;;;27.67;14.63;;;;;;;12.46;40.10;96857.09;5021804;28;20061;-66
2022/03/12 10:09:20;;;;;;;24.10;14.10;;;;;;;12.69;38.87;96856.16;5016430;28;20088;-67
2022/03/12 10:11:45;;;;;;;25.42;13.82;;;;;;;12.92;38.25;96845.00;5016093;28;20063;-65
2022/03/12 10:14:11;;;;;;;26.00;14.23;;;;;;;13.44;37.04;96840.34;5018394;28;20038;-64
2022/03/12 10:16:37;;;;;;;23.88;13.57;;;;;;;13.51;37.21;96837.66;5013825;28;20060;-64
2022/03/12 10:19:03;;;;;;;24.42;15.23;;;;;;;13.43;37.63;96833.25;5018263;28;20038;-63
2022/03/12 10:21:30;;;;;;;26.02;14.35;;;;;;;14.57;34.98;96832.28;5021021;28;20040;-65
2022/03/12 10:23:56;;;;;;;23.50;13.73;;;;;;;14.80;34.90;96831.16;5010030;28;20390;-66
2022/03/12 10:26:21;;;;;;;27.17;14.77;;;;;;;14.90;35.06;96824.88;5015181;28;20042;-67
2022/03/12 10:28:47;;;;;;;23.83;14.00;;;;;;;15.53;32.90;96827.25;5021303;28;20091;-66
2022/03/12 10:31:19;;;;;;;28.08;14.73;;;;;;;15.17;34.36;96816.25;5006426;28;20470;-65
2022/03/12 10:33:45;;;;;;;23.35;13.82;;;;;;;15.84;33.58;96822.88;5013730;28;20045;-65
2022/03/12 10:36:14;;;;;;;26.67;14.65;;;;;;;15.90;32.06;96820.50;5004682;28;20050;-65
2022/03/12 10:38:47;;;;;;;27.65;15.18;;;;;;;15.09;33.22;96821.75;5012917;28;20129;-65
2022/03/12 10:41:13;;;;;;;25.67;14.23;;;;;;;14.87;34.74;96818.19;5017278;28;20068;-63
2022/03/12 10:43:47;;;;;;;25.73;14.75;;;;;;;15.00;34.97;96812.28;5021817;28;20056;-65
2022/03/12 10:46:21;;;;;;;28.55;14.80;;;;;;;15.60;34.28;96805.16;5015537;28;20053;-65
2022/03/12 10:48:52;;;;;;;28.63;15.35;;;;;;;15.62;33.05;96806.34;5022389;28;20041;-65
2022/03/12 10:51:18;;;;;;;24.67;14.18;;;;;;;14.36;35.26;96802.69;5008768;28;20045;-64
2022/03/12 10:53:45;;;;;;;29.60;15.23;;;;;;;15.12;34.73;96789.03;5016333;28;20512;-66
2022/03/12 10:56:10;;;;;;;25.92;14.80;;;;;;;15.06;33.65;96792.19;5016200;28;20072;-64
2022/03/12 10:58:37;;;;;;;22.92;13.35;;;;;;;16.46;31.90;96784.75;5021743;28;20046;-67
2022/03/12 11:01:03;;;;;;;28.63;16.10;;;;;;;15.02;33.46;96790.63;5020364;28;20124;-62
2022/03/12 11:03:31;;;;;;;30.67;17.45;;;;;;;13.51;33.56;96782.63;5008789;28;20491;-65
2022/03/12 11:05:57;;;;;;;33.35;14.85;;;;;;;12.56;36.79;96786.94;5010167;28;20049;-66
2022/03/12 11:08:27;;;;;;;32.40;14.82;;;;;;;12.98;35.64;96764.56;5017186;28;20448;-67
2022/03/12 11:11:14;;;;;;;29.48;14.45;;;;;;;13.78;34.53;96776.88;5022672;28;20076;-67
2022/03/12 11:13:49;;;;;;;27.98;13.93;;;;;;;14.39;32.99;96768.84;5032853;28;20029;-64
2022/03/12 11:16:18;;;;;;;25.17;13.43;;;;;;;13.16;35.21;96772.94;5031549;28;20458;-66
2022/03/12 11:18:52;;;;;;;29.97;14.07;;;;;;;12.49;38.16;96757.44;5022103;28;20057;-64
2022/03/12 11:21:51;;;;;;;29.15;14.93;;;;;;;12.81;37.25;96767.94;5007684;28;20087;-65